Aputiteeq

KL  EN  DA
ASIAQ
Weather Now GREENLAND SURVEY
Updated [WGT/WGST] Temperature [°C] Wind [m/s] Air pressure [hPa] Relative humidity [%] Precipitation [mm]
Present Wind chill Speed Max
30.11 16:00-9,2-18,17,7 ⇙9,3100971n/a
30.11 15:00-9,2-18,99,3 ⇙10,8100969n/a
30.11 14:00-9,2-17,66,7 ⇙8,2101072n/a
30.11 13:00-9,1-17,16,2 ⇙7,2101174n/a
30.11 12:00-8,7-12,72,1 ⇙3,1101269n/a
30.11 11:00-9,40,00,5 ⇙1,0101376n/a
30.11 10:00-8,30,01,0 ⇐2,1101375n/a
30.11 09:00-8,8-11,81,5 ⇐3,1101362n/a
30.11 08:00-9,60,01,0 ⇙2,1101349n/a
30.11 07:00-10,4-14,72,1 ⇘2,6101341n/a
30.11 06:00-11,30,01,0 ⇒1,5101336n/a
30.11 05:00-10,7-14,01,5 ⇒2,1101237n/a
30.11 04:00-11,2-15,72,1 ⇒2,6101251n/a
30.11 03:00-11,8-17,83,1 ⇒4,1101343n/a
30.11 02:00-12,9-19,73,6 ⇘4,6101346n/a
30.11 01:00-11,3-15,82,1 ⇗3,1101359n/a
30.11 00:00-13,1-18,72,6 ⇒3,1101347n/a
29.11 23:00-11,7-17,02,6 ⇒3,1101345n/a
29.11 22:00-13,1-18,72,6 ⇒3,6101345n/a
29.11 21:00-12,9-19,13,1 ⇘4,1101242n/a
29.11 20:00-13,4-21,34,6 ⇘5,7101249n/a
29.11 19:00-13,1-20,54,1 ⇘4,6101242n/a
29.11 18:00-13,5-19,83,1 ⇒4,1101154n/a
29.11 17:00-14,0-20,43,1 ⇒3,6101155n/a
29.11 16:00-13,6-20,63,6 ⇘4,1101147n/a
Position: (67.78166666666,-32.2841666666)

[Back]